Time;durP1;ratioP1;P1;durP2;ratioP2;P2;SDS_P1;SDS_P2;PMS_P1;PMS_P2;Temp;Humidity;BMP_temperature;BMP_pressure;BME280_temperature;BME280_humidity;BME280_pressure;Samples;Min_cycle;Max_cycle;Signal;HPM_P1;HPM_P2
2021/07/06 00:01:10;;;;;;;6.95;4.40;;;;;;;;;;5108771;28;20023;-67
2021/07/06 00:03:36;;;;;;;9.27;4.43;;;;;;;;;;5111021;28;20035;-67
2021/07/06 00:06:02;;;;;;;10.10;4.05;;;;;;;;;;5092530;28;20042;-67
2021/07/06 00:08:28;;;;;;;10.55;4.55;;;;;;;;;;5110808;28;20015;-66
2021/07/06 00:10:55;;;;;;;6.53;4.13;;;;;;;;;;5109069;28;20630;-67
2021/07/06 00:13:21;;;;;;;7.40;4.38;;;;;;;;;;5110525;28;20031;-66
2021/07/06 00:15:48;;;;;;;8.23;3.85;;;;;;;;;;5110954;28;20031;-67
2021/07/06 00:18:14;;;;;;;7.43;4.10;;;;;;;;;;5092719;28;20032;-67
2021/07/06 00:20:40;;;;;;;7.55;4.13;;;;;;;;;;5109501;28;20441;-67
2021/07/06 00:23:07;;;;;;;6.43;4.00;;;;;;;;;;5109875;28;20047;-66
2021/07/06 00:25:33;;;;;;;6.18;4.10;;;;;;;;;;5110919;28;20016;-66
2021/07/06 00:28:00;;;;;;;5.55;3.95;;;;;;;;;;5091880;28;20039;-67
2021/07/06 00:30:26;;;;;;;6.35;3.63;;;;;;;;;;5090423;28;20024;-67
2021/07/06 00:32:53;;;;;;;6.15;4.00;;;;;;;;;;5110433;28;20081;-67
2021/07/06 00:35:19;;;;;;;5.40;3.83;;;;;;;;;;5092303;28;20019;-66
2021/07/06 00:37:46;;;;;;;5.75;3.22;;;;;;;;;;5110413;28;20020;-66
2021/07/06 00:40:12;;;;;;;8.55;4.03;;;;;;;;;;5109347;28;20141;-67
2021/07/06 00:42:42;;;;;;;6.53;4.10;;;;;;;;;;5109747;28;20032;-66
2021/07/06 00:45:09;;;;;;;6.63;3.88;;;;;;;;;;5092741;28;20019;-66
2021/07/06 00:47:36;;;;;;;9.90;4.18;;;;;;;;;;5113180;28;20023;-67
2021/07/06 00:50:09;;;;;;;5.88;3.45;;;;;;;;;;5093270;28;20074;-66
2021/07/06 00:52:36;;;;;;;8.25;3.58;;;;;;;;;;5111795;28;20019;-66
2021/07/06 00:55:03;;;;;;;7.47;3.95;;;;;;;;;;5114422;27;20081;-66
2021/07/06 00:57:29;;;;;;;21.33;4.65;;;;;;;;;;5113697;28;20023;-66
2021/07/06 00:59:59;;;;;;;7.18;3.55;;;;;;;;;;5094341;28;20034;-66
2021/07/06 01:02:25;;;;;;;6.63;4.10;;;;;;;;;;5113119;28;20023;-66
2021/07/06 01:04:51;;;;;;;6.93;4.00;;;;;;;;;;5114595;28;20038;-66
2021/07/06 01:07:17;;;;;;;7.05;3.72;;;;;;;;;;5095840;28;20026;-66
2021/07/06 01:09:43;;;;;;;8.10;4.25;;;;;;;;;;5112745;28;20031;-66
2021/07/06 01:12:11;;;;;;;8.02;4.10;;;;;;;;;;5121168;27;20035;-66
2021/07/06 01:14:37;;;;;;;6.93;4.25;;;;;;;;;;5114456;28;20521;-66
2021/07/06 01:17:04;;;;;;;7.00;4.38;;;;;;;;;;5106224;28;20071;-66
2021/07/06 01:19:30;;;;;;;10.02;4.05;;;;;;;;;;5110163;28;20085;-66
2021/07/06 01:22:01;;;;;;;10.10;4.32;;;;;;;;;;5113641;27;20035;-67
2021/07/06 01:24:27;;;;;;;7.27;3.90;;;;;;;;;;5110986;28;20027;-66
2021/07/06 01:26:53;;;;;;;9.52;3.90;;;;;;;;;;5113725;28;20015;-66
2021/07/06 01:29:20;;;;;;;6.15;3.60;;;;;;;;;;5112444;28;20039;-66
2021/07/06 01:31:53;;;;;;;5.97;3.75;;;;;;;;;;5113319;28;20047;-66
2021/07/06 01:34:19;;;;;;;5.93;3.97;;;;;;;;;;5113542;28;20051;-66
2021/07/06 01:36:46;;;;;;;6.53;4.50;;;;;;;;;;5113537;28;20069;-66
2021/07/06 01:39:12;;;;;;;11.05;5.47;;;;;;;;;;5112354;28;20630;-66
2021/07/06 01:41:44;;;;;;;13.23;5.93;;;;;;;;;;5112920;28;20023;-65
2021/07/06 01:44:20;;;;;;;14.38;7.28;;;;;;;;;;5113344;28;20024;-66
2021/07/06 01:46:46;;;;;;;8.48;5.90;;;;;;;;;;5112365;28;20094;-66
2021/07/06 01:49:13;;;;;;;12.10;7.43;;;;;;;;;;5109849;28;20019;-66
2021/07/06 01:51:40;;;;;;;13.27;7.72;;;;;;;;;;5112871;28;20495;-66
2021/07/06 01:54:06;;;;;;;12.93;7.28;;;;;;;;;;5113305;28;20028;-66
2021/07/06 01:56:35;;;;;;;12.38;7.47;;;;;;;;;;5095081;28;20122;-66
2021/07/06 01:59:01;;;;;;;14.82;7.88;;;;;;;;;;5110542;28;20034;-65
2021/07/06 02:01:27;;;;;;;12.55;8.10;;;;;;;;;;5112350;28;20407;-66
2021/07/06 02:03:53;;;;;;;10.85;7.40;;;;;;;;;;5094008;28;20035;-66
2021/07/06 02:06:19;;;;;;;15.52;7.65;;;;;;;;;;5112876;28;20020;-65
2021/07/06 02:08:45;;;;;;;14.85;8.40;;;;;;;;;;5108311;28;20081;-66
2021/07/06 02:11:12;;;;;;;15.77;8.98;;;;;;;;;;5113503;27;20491;-66
2021/07/06 02:13:38;;;;;;;14.93;7.55;;;;;;;;;;5112918;28;20031;-66
2021/07/06 02:16:05;;;;;;;14.90;7.93;;;;;;;;;;5113458;28;20039;-65
2021/07/06 02:18:32;;;;;;;15.00;7.53;;;;;;;;;;5092926;28;20038;-65
2021/07/06 02:20:59;;;;;;;11.05;6.88;;;;;;;;;;5089445;27;20023;-66
2021/07/06 02:23:26;;;;;;;15.05;8.15;;;;;;;;;;5111586;28;20028;-66
2021/07/06 02:25:53;;;;;;;16.52;7.55;;;;;;;;;;5108307;28;20031;-66
2021/07/06 02:28:19;;;;;;;10.55;6.45;;;;;;;;;;5089753;28;20028;-66
2021/07/06 02:30:45;;;;;;;13.57;6.25;;;;;;;;;;5102062;28;20491;-65
2021/07/06 02:33:12;;;;;;;12.98;6.13;;;;;;;;;;5107637;28;20685;-66
2021/07/06 02:35:38;;;;;;;13.10;5.88;;;;;;;;;;5107956;28;20032;-67
2021/07/06 02:38:04;;;;;;;13.25;6.28;;;;;;;;;;5108394;28;20126;-67
2021/07/06 02:40:30;;;;;;;10.68;5.57;;;;;;;;;;5108324;28;20031;-66
2021/07/06 02:42:57;;;;;;;13.30;5.43;;;;;;;;;;5111685;28;20027;-66
2021/07/06 02:45:24;;;;;;;10.10;5.53;;;;;;;;;;5104999;28;20495;-67
2021/07/06 02:47:50;;;;;;;9.07;5.38;;;;;;;;;;5093224;28;20115;-66
2021/07/06 02:50:17;;;;;;;11.43;5.13;;;;;;;;;;5111196;28;20024;-66
2021/07/06 02:52:44;;;;;;;11.45;5.03;;;;;;;;;;5111675;28;20558;-66
2021/07/06 02:55:10;;;;;;;10.35;5.13;;;;;;;;;;5111615;28;20039;-67
2021/07/06 02:57:38;;;;;;;10.13;4.57;;;;;;;;;;5092859;28;20408;-66
2021/07/06 03:00:10;;;;;;;8.70;3.83;;;;;;;;;;5110061;28;20019;-65
2021/07/06 03:02:37;;;;;;;10.10;3.80;;;;;;;;;;5091216;28;20502;-67
2021/07/06 03:05:04;;;;;;;8.73;4.07;;;;;;;;;;5092139;28;20031;-66
2021/07/06 03:07:30;;;;;;;10.48;3.75;;;;;;;;;;5112465;28;20020;-66
2021/07/06 03:09:56;;;;;;;9.45;3.67;;;;;;;;;;5110166;28;20031;-66
2021/07/06 03:12:22;;;;;;;10.50;3.28;;;;;;;;;;5093229;28;20028;-66
2021/07/06 03:14:48;;;;;;;7.28;3.10;;;;;;;;;;5111925;28;20120;-66
2021/07/06 03:17:14;;;;;;;7.35;3.30;;;;;;;;;;5103410;28;20028;-67
2021/07/06 03:19:40;;;;;;;7.90;3.05;;;;;;;;;;5092379;28;20105;-66
2021/07/06 03:22:06;;;;;;;4.57;2.45;;;;;;;;;;5110816;28;20027;-66
2021/07/06 03:24:32;;;;;;;7.25;2.45;;;;;;;;;;5110988;28;20027;-66
2021/07/06 03:26:58;;;;;;;6.28;2.78;;;;;;;;;;5124175;27;20022;-67
2021/07/06 03:29:24;;;;;;;5.97;2.30;;;;;;;;;;5110590;28;20089;-66
2021/07/06 03:31:50;;;;;;;10.43;2.72;;;;;;;;;;5110187;28;20028;-66
2021/07/06 03:34:16;;;;;;;4.32;2.10;;;;;;;;;;5111724;28;20059;-66
2021/07/06 03:36:42;;;;;;;7.03;2.70;;;;;;;;;;5111491;28;20073;-66
2021/07/06 03:39:08;;;;;;;5.95;2.65;;;;;;;;;;5110585;28;20039;-67
2021/07/06 03:41:34;;;;;;;8.93;2.55;;;;;;;;;;5091069;28;20019;-67
2021/07/06 03:44:00;;;;;;;6.28;3.08;;;;;;;;;;5111182;28;20023;-66
2021/07/06 03:46:27;;;;;;;7.57;2.78;;;;;;;;;;5111115;28;20035;-67
2021/07/06 03:48:53;;;;;;;7.97;2.58;;;;;;;;;;5100506;28;20026;-65
2021/07/06 03:51:19;;;;;;;8.70;3.05;;;;;;;;;;5109232;28;20076;-66
2021/07/06 03:53:45;;;;;;;7.82;2.80;;;;;;;;;;5110880;28;20032;-67
2021/07/06 03:56:11;;;;;;;4.07;2.30;;;;;;;;;;5110660;28;20115;-67
2021/07/06 03:58:37;;;;;;;8.75;2.17;;;;;;;;;;5111220;28;20491;-66
2021/07/06 04:01:03;;;;;;;5.20;2.67;;;;;;;;;;5109652;28;20487;-66
2021/07/06 04:03:29;;;;;;;7.15;3.40;;;;;;;;;;5109978;28;20023;-65
2021/07/06 04:05:55;;;;;;;7.53;2.30;;;;;;;;;;5110373;28;20019;-66
2021/07/06 04:08:21;;;;;;;6.13;2.53;;;;;;;;;;5110535;28;20453;-66
2021/07/06 04:10:47;;;;;;;7.28;2.22;;;;;;;;;;5091250;28;20549;-66
2021/07/06 04:13:13;;;;;;;10.57;3.08;;;;;;;;;;5092036;28;20506;-65
2021/07/06 04:15:39;;;;;;;9.05;2.92;;;;;;;;;;5092495;28;20020;-65
2021/07/06 04:18:05;;;;;;;4.90;2.10;;;;;;;;;;5111028;28;20027;-65
2021/07/06 04:20:33;;;;;;;5.05;2.03;;;;;;;;;;5109654;28;20031;-66
2021/07/06 04:22:59;;;;;;;5.40;2.40;;;;;;;;;;5114228;28;20024;-66
2021/07/06 04:25:25;;;;;;;7.15;1.83;;;;;;;;;;5115358;27;20020;-65
2021/07/06 04:27:51;;;;;;;7.82;1.60;;;;;;;;;;5112457;28;20038;-65
2021/07/06 04:30:18;;;;;;;9.88;2.00;;;;;;;;;;5112532;28;20102;-66
2021/07/06 04:32:45;;;;;;;5.60;1.10;;;;;;;;;;5094504;28;20050;-65
2021/07/06 04:35:11;;;;;;;6.10;1.13;;;;;;;;;;5092537;28;20039;-66
2021/07/06 04:37:38;;;;;;;6.53;1.48;;;;;;;;;;5112993;28;20045;-66
2021/07/06 04:40:05;;;;;;;7.25;1.10;;;;;;;;;;5112214;28;20027;-66
2021/07/06 04:42:31;;;;;;;11.00;2.03;;;;;;;;;;5112901;28;20532;-66
2021/07/06 04:44:57;;;;;;;7.72;1.58;;;;;;;;;;5095016;28;20388;-65
2021/07/06 04:47:23;;;;;;;9.90;1.52;;;;;;;;;;5094697;28;20020;-67
2021/07/06 04:49:49;;;;;;;8.57;1.38;;;;;;;;;;5108201;28;20126;-65
2021/07/06 04:52:16;;;;;;;10.20;1.50;;;;;;;;;;5112175;28;20071;-65
2021/07/06 04:54:42;;;;;;;6.47;1.67;;;;;;;;;;5095121;28;20042;-66
2021/07/06 04:57:08;;;;;;;11.45;1.75;;;;;;;;;;5112670;28;20118;-66
2021/07/06 04:59:34;;;;;;;9.68;1.70;;;;;;;;;;5093464;28;20687;-65
2021/07/06 05:02:00;;;;;;;7.38;1.75;;;;;;;;;;5112831;28;20114;-65
2021/07/06 05:04:28;;;;;;;8.70;1.65;;;;;;;;;;5113383;28;20016;-66
2021/07/06 05:06:54;;;;;;;5.97;1.55;;;;;;;;;;5091827;28;20047;-65
2021/07/06 05:09:20;;;;;;;9.07;1.35;;;;;;;;;;5111468;28;20028;-65
2021/07/06 05:11:46;;;;;;;8.75;2.05;;;;;;;;;;5092866;28;20088;-66
2021/07/06 05:14:12;;;;;;;11.52;1.55;;;;;;;;;;5111940;28;20072;-66
2021/07/06 05:16:38;;;;;;;7.28;1.70;;;;;;;;;;5114591;27;20084;-65
2021/07/06 05:19:04;;;;;;;6.93;1.60;;;;;;;;;;5094181;28;20042;-65
2021/07/06 05:21:30;;;;;;;10.27;1.55;;;;;;;;;;5112088;28;20099;-65
2021/07/06 05:23:57;;;;;;;10.70;1.83;;;;;;;;;;5110535;28;20067;-65
2021/07/06 05:26:23;;;;;;;7.40;1.60;;;;;;;;;;5111580;28;20099;-65
2021/07/06 05:28:49;;;;;;;7.95;1.73;;;;;;;;;;5112836;28;20020;-65
2021/07/06 05:31:15;;;;;;;10.23;2.00;;;;;;;;;;5097041;28;20019;-66
2021/07/06 05:33:41;;;;;;;10.30;1.33;;;;;;;;;;5110401;28;20307;-65
2021/07/06 05:36:07;;;;;;;9.10;1.90;;;;;;;;;;5112849;28;20031;-65
2021/07/06 05:38:33;;;;;;;7.43;1.25;;;;;;;;;;5112429;28;20443;-65
2021/07/06 05:40:59;;;;;;;8.73;1.40;;;;;;;;;;5109202;28;20035;-66
2021/07/06 05:43:27;;;;;;;11.85;2.08;;;;;;;;;;5112377;28;20053;-65
2021/07/06 05:45:53;;;;;;;10.30;1.27;;;;;;;;;;5111135;27;20054;-65
2021/07/06 05:48:20;;;;;;;6.25;1.33;;;;;;;;;;5111863;28;20375;-65
2021/07/06 05:50:46;;;;;;;9.65;1.92;;;;;;;;;;5111237;28;20499;-66
2021/07/06 05:53:12;;;;;;;5.75;1.30;;;;;;;;;;5110542;28;20095;-65
2021/07/06 05:55:39;;;;;;;5.65;1.60;;;;;;;;;;5092155;28;20028;-65
2021/07/06 05:58:06;;;;;;;17.63;2.20;;;;;;;;;;5111952;28;20030;-66
2021/07/06 06:00:33;;;;;;;13.45;2.10;;;;;;;;;;5110010;28;20570;-65
2021/07/06 06:02:59;;;;;;;6.50;1.63;;;;;;;;;;5092086;28;20153;-65
2021/07/06 06:05:25;;;;;;;6.45;1.50;;;;;;;;;;5108560;28;20020;-66
2021/07/06 06:07:52;;;;;;;5.65;1.73;;;;;;;;;;5107597;28;20111;-67
2021/07/06 06:10:18;;;;;;;8.35;1.70;;;;;;;;;;5105714;28;20125;-66
2021/07/06 06:12:44;;;;;;;6.32;2.03;;;;;;;;;;5089095;28;20020;-66
2021/07/06 06:15:10;;;;;;;6.57;1.40;;;;;;;;;;5106510;28;20032;-66
2021/07/06 06:17:37;;;;;;;4.38;1.38;;;;;;;;;;5109889;28;20031;-66
2021/07/06 06:20:04;;;;;;;5.10;1.38;;;;;;;;;;5105436;28;20027;-66
2021/07/06 06:22:30;;;;;;;6.95;2.03;;;;;;;;;;5102712;28;20081;-66
2021/07/06 06:24:56;;;;;;;4.47;1.40;;;;;;;;;;5091385;28;20037;-67
2021/07/06 06:27:22;;;;;;;8.90;1.60;;;;;;;;;;5108353;28;20012;-66
2021/07/06 06:29:48;;;;;;;6.68;1.48;;;;;;;;;;5091352;28;20012;-66
2021/07/06 06:32:16;;;;;;;5.80;1.35;;;;;;;;;;5106585;28;20487;-65
2021/07/06 06:34:42;;;;;;;8.45;1.85;;;;;;;;;;5091032;28;20028;-66
2021/07/06 06:37:08;;;;;;;5.63;1.42;;;;;;;;;;5110052;28;20054;-65
2021/07/06 06:39:34;;;;;;;8.52;1.42;;;;;;;;;;5109167;28;20368;-66
2021/07/06 06:42:00;;;;;;;6.18;1.30;;;;;;;;;;5106932;28;20471;-66
2021/07/06 06:44:26;;;;;;;7.30;2.22;;;;;;;;;;5090313;28;20083;-66
2021/07/06 06:46:53;;;;;;;10.88;1.48;;;;;;;;;;5110140;28;20024;-66
2021/07/06 06:49:19;;;;;;;7.75;2.15;;;;;;;;;;5110146;28;20027;-67
2021/07/06 06:51:45;;;;;;;6.65;1.67;;;;;;;;;;5088274;28;20035;-66
2021/07/06 06:54:11;;;;;;;5.45;1.05;;;;;;;;;;5109550;28;20027;-67
2021/07/06 06:56:40;;;;;;;11.65;2.42;;;;;;;;;;5104749;28;20140;-65
2021/07/06 06:59:07;;;;;;;6.70;1.40;;;;;;;;;;5108547;28;20020;-66
2021/07/06 07:01:33;;;;;;;5.32;1.10;;;;;;;;;;5086582;28;20035;-65
2021/07/06 07:03:59;;;;;;;7.03;1.50;;;;;;;;;;5089684;28;20046;-66
2021/07/06 07:06:25;;;;;;;6.72;1.35;;;;;;;;;;5090463;28;20027;-65
2021/07/06 07:08:51;;;;;;;8.15;1.40;;;;;;;;;;5109515;28;20372;-66
2021/07/06 07:11:17;;;;;;;5.07;1.00;;;;;;;;;;5087545;27;20043;-65
2021/07/06 07:13:43;;;;;;;9.32;1.50;;;;;;;;;;5111386;27;20027;-65
2021/07/06 07:16:09;;;;;;;4.47;1.55;;;;;;;;;;5109051;28;20036;-65
2021/07/06 07:18:35;;;;;;;8.98;1.63;;;;;;;;;;5108923;28;20549;-66
2021/07/06 07:21:01;;;;;;;7.38;1.10;;;;;;;;;;5106063;28;20043;-66
2021/07/06 07:23:27;;;;;;;15.07;1.83;;;;;;;;;;5108870;28;20033;-66
2021/07/06 07:25:54;;;;;;;10.65;1.90;;;;;;;;;;5108924;28;20534;-65
2021/07/06 07:28:20;;;;;;;9.13;1.80;;;;;;;;;;5091228;28;20020;-66
2021/07/06 07:30:46;;;;;;;9.82;1.45;;;;;;;;;;5091348;27;20075;-66
2021/07/06 07:33:12;;;;;;;8.70;1.80;;;;;;;;;;5109877;28;20073;-66
2021/07/06 07:35:38;;;;;;;9.95;2.08;;;;;;;;;;5091390;28;20053;-66
2021/07/06 07:38:04;;;;;;;10.48;1.83;;;;;;;;;;5109360;28;20032;-67
2021/07/06 07:40:30;;;;;;;8.93;1.30;;;;;;;;;;5107243;28;20031;-66
2021/07/06 07:42:57;;;;;;;9.88;1.88;;;;;;;;;;5108932;28;20491;-65
2021/07/06 07:45:23;;;;;;;8.55;1.27;;;;;;;;;;5109583;28;20116;-66
2021/07/06 07:47:49;;;;;;;7.40;1.90;;;;;;;;;;5105125;28;20027;-65
2021/07/06 07:50:15;;;;;;;5.47;1.38;;;;;;;;;;5105987;28;20015;-67
2021/07/06 07:52:41;;;;;;;28.15;2.20;;;;;;;;;;5087637;28;20047;-66
2021/07/06 07:55:08;;;;;;;12.68;2.85;;;;;;;;;;5108364;28;20024;-66
2021/07/06 07:57:34;;;;;;;10.55;1.63;;;;;;;;;;5087066;28;20032;-66
2021/07/06 08:00:00;;;;;;;7.63;1.90;;;;;;;;;;5106585;28;20019;-65
2021/07/06 08:02:26;;;;;;;12.10;1.70;;;;;;;;;;5103621;28;20024;-65
2021/07/06 08:04:52;;;;;;;9.45;1.48;;;;;;;;;;5104418;27;20023;-66
2021/07/06 08:07:18;;;;;;;11.18;1.98;;;;;;;;;;5104234;28;20019;-66
2021/07/06 08:09:44;;;;;;;9.57;1.83;;;;;;;;;;5096027;28;20031;-66
2021/07/06 08:12:11;;;;;;;11.27;1.77;;;;;;;;;;5080686;28;20035;-65
2021/07/06 08:14:37;;;;;;;11.43;2.60;;;;;;;;;;5105547;28;20188;-65
2021/07/06 08:17:03;;;;;;;10.75;1.90;;;;;;;;;;5083058;28;20032;-66
2021/07/06 08:19:30;;;;;;;10.00;2.00;;;;;;;;;;5101441;28;20087;-65
2021/07/06 08:21:56;;;;;;;10.07;1.80;;;;;;;;;;5088501;28;20092;-65
2021/07/06 08:24:22;;;;;;;10.38;1.83;;;;;;;;;;5098465;28;20092;-66
2021/07/06 08:26:48;;;;;;;9.18;2.35;;;;;;;;;;5106096;28;20513;-65
2021/07/06 08:29:16;;;;;;;9.40;1.20;;;;;;;;;;5104147;28;20376;-66
2021/07/06 08:31:42;;;;;;;13.25;1.40;;;;;;;;;;5106921;28;20034;-66
2021/07/06 08:34:08;;;;;;;14.80;2.22;;;;;;;;;;5104741;28;20110;-67
2021/07/06 08:36:34;;;;;;;14.38;3.03;;;;;;;;;;5091470;28;20028;-67
2021/07/06 08:39:01;;;;;;;13.65;1.92;;;;;;;;;;5106414;28;20028;-66
2021/07/06 08:41:27;;;;;;;7.60;1.35;;;;;;;;;;5105984;28;20485;-66
2021/07/06 08:43:53;;;;;;;13.55;2.03;;;;;;;;;;5090025;28;20039;-65
2021/07/06 08:46:20;;;;;;;7.72;1.63;;;;;;;;;;5105609;28;20031;-67
2021/07/06 08:48:47;;;;;;;9.35;1.83;;;;;;;;;;5084676;28;20031;-67
2021/07/06 08:51:16;;;;;;;13.57;2.80;;;;;;;;;;5098918;28;20043;-67
2021/07/06 08:53:42;;;;;;;9.82;1.67;;;;;;;;;;5101993;28;20020;-66
2021/07/06 08:56:08;;;;;;;12.05;2.03;;;;;;;;;;5108983;28;20494;-66
2021/07/06 08:58:34;;;;;;;5.82;1.40;;;;;;;;;;5106706;28;20035;-66
2021/07/06 09:01:00;;;;;;;12.43;3.03;;;;;;;;;;5106645;28;20114;-66
2021/07/06 09:03:26;;;;;;;16.50;2.28;;;;;;;;;;5101220;28;20031;-68
2021/07/06 09:06:03;;;;;;;7.03;2.53;;;;;;;;;;5099711;28;20528;-66
2021/07/06 09:08:29;;;;;;;8.77;1.40;;;;;;;;;;5091203;28;20027;-67
2021/07/06 09:10:55;;;;;;;9.90;1.77;;;;;;;;;;5110680;28;20019;-68
2021/07/06 09:13:24;;;;;;;10.70;1.75;;;;;;;;;;5117388;27;20034;-66
2021/07/06 09:15:52;;;;;;;8.57;1.20;;;;;;;;;;5088903;28;20039;-67
2021/07/06 09:18:20;;;;;;;20.05;2.10;;;;;;;;;;5108226;28;20121;-66
2021/07/06 09:21:02;;;;;;;18.33;2.33;;;;;;;;;;5108246;28;20028;-67
2021/07/06 09:23:30;;;;;;;13.68;2.75;;;;;;;;;;5102671;27;20020;-68
2021/07/06 09:26:13;;;;;;;9.23;1.70;;;;;;;;;;5111738;28;20024;-67
2021/07/06 09:28:55;;;;;;;7.60;1.73;;;;;;;;;;5113022;28;20153;-67
2021/07/06 09:31:24;;;;;;;18.20;2.78;;;;;;;;;;5128989;27;20083;-66
2021/07/06 09:34:00;;;;;;;10.68;2.85;;;;;;;;;;5106472;28;20032;-66
2021/07/06 09:36:37;;;;;;;12.55;2.80;;;;;;;;;;5107784;28;20027;-66
2021/07/06 09:39:06;;;;;;;11.68;1.63;;;;;;;;;;5105780;28;20032;-67
2021/07/06 09:41:32;;;;;;;10.43;1.92;;;;;;;;;;5088601;28;20073;-66
2021/07/06 09:44:17;;;;;;;12.25;2.10;;;;;;;;;;5097479;28;20069;-66
2021/07/06 09:46:47;;;;;;;11.38;2.10;;;;;;;;;;5110016;27;20032;-66
2021/07/06 09:49:17;;;;;;;9.52;1.60;;;;;;;;;;5102853;28;20038;-66
2021/07/06 09:51:43;;;;;;;11.93;2.35;;;;;;;;;;5081301;28;20576;-66
2021/07/06 09:54:09;;;;;;;14.32;2.10;;;;;;;;;;5077345;28;20035;-66
2021/07/06 09:56:41;;;;;;;14.52;2.60;;;;;;;;;;5103572;28;20032;-67
2021/07/06 09:59:07;;;;;;;10.77;2.10;;;;;;;;;;5107167;28;20031;-65
2021/07/06 10:01:34;;;;;;;15.68;1.77;;;;;;;;;;5111778;28;20483;-66
2021/07/06 10:04:00;;;;;;;11.60;2.28;;;;;;;;;;5105281;27;20031;-66
2021/07/06 10:06:27;;;;;;;16.75;1.88;;;;;;;;;;5107674;28;20027;-66
2021/07/06 10:08:54;;;;;;;10.77;2.03;;;;;;;;;;5106646;28;20012;-67
2021/07/06 10:11:21;;;;;;;8.50;1.58;;;;;;;;;;5106427;28;20026;-66
2021/07/06 10:13:47;;;;;;;10.18;1.23;;;;;;;;;;5105280;28;20080;-67
2021/07/06 10:16:17;;;;;;;13.98;1.70;;;;;;;;;;5105397;28;20035;-65
2021/07/06 10:18:44;;;;;;;13.52;1.95;;;;;;;;;;5096306;28;20407;-66
2021/07/06 10:21:10;;;;;;;11.52;1.63;;;;;;;;;;5100140;28;20032;-66
2021/07/06 10:23:38;;;;;;;18.38;2.83;;;;;;;;;;5106595;28;20028;-66
2021/07/06 10:26:04;;;;;;;24.08;3.10;;;;;;;;;;5108096;27;20035;-65
2021/07/06 10:28:31;;;;;;;11.43;1.80;;;;;;;;;;5108802;28;20077;-65
2021/07/06 10:31:14;;;;;;;7.68;2.60;;;;;;;;;;5109937;28;20030;-66
2021/07/06 10:33:41;;;;;;;14.50;2.17;;;;;;;;;;5103229;28;20548;-67
2021/07/06 10:36:07;;;;;;;12.82;1.50;;;;;;;;;;5107935;28;20031;-66
2021/07/06 10:38:39;;;;;;;12.25;1.80;;;;;;;;;;5094029;28;20391;-66
2021/07/06 10:41:05;;;;;;;13.27;2.33;;;;;;;;;;5106307;28;20521;-66
2021/07/06 10:43:41;;;;;;;8.20;1.60;;;;;;;;;;5105082;28;20659;-69
2021/07/06 10:46:25;;;;;;;7.68;2.10;;;;;;;;;;5111219;28;20039;-66
2021/07/06 10:49:00;;;;;;;11.70;1.67;;;;;;;;;;5111102;28;20298;-65
2021/07/06 10:51:35;;;;;;;7.40;1.70;;;;;;;;;;5109034;28;20110;-66
2021/07/06 10:54:16;;;;;;;9.95;1.90;;;;;;;;;;5107074;28;20028;-66
2021/07/06 10:56:43;;;;;;;9.50;1.50;;;;;;;;;;5090843;28;20035;-65
2021/07/06 10:59:19;;;;;;;10.70;2.88;;;;;;;;;;5110073;28;20031;-67
2021/07/06 11:01:48;;;;;;;9.13;1.95;;;;;;;;;;5091634;28;20023;-68
2021/07/06 11:04:34;;;;;;;7.72;1.70;;;;;;;;;;5107258;28;20073;-68
2021/07/06 11:07:00;;;;;;;7.75;1.77;;;;;;;;;;5090754;28;20031;-68
2021/07/06 11:09:26;;;;;;;10.82;1.90;;;;;;;;;;5104699;28;20047;-67
2021/07/06 11:11:52;;;;;;;14.40;2.70;;;;;;;;;;5107001;28;20103;-67
2021/07/06 11:14:19;;;;;;;7.95;1.80;;;;;;;;;;5103247;28;20055;-68
2021/07/06 11:16:56;;;;;;;8.15;1.60;;;;;;;;;;5091121;28;20027;-68
2021/07/06 11:19:33;;;;;;;10.68;2.40;;;;;;;;;;5108045;28;20028;-67
2021/07/06 11:22:08;;;;;;;10.63;1.48;;;;;;;;;;5126032;27;20019;-67
2021/07/06 11:24:43;;;;;;;13.15;1.95;;;;;;;;;;5115915;27;20038;-67
2021/07/06 11:27:10;;;;;;;5.18;2.20;;;;;;;;;;5110949;27;20101;-68
2021/07/06 11:29:37;;;;;;;8.00;1.58;;;;;;;;;;5115586;27;20110;-68
2021/07/06 11:32:16;;;;;;;8.20;1.92;;;;;;;;;;5107353;28;20055;-67
2021/07/06 11:34:43;;;;;;;8.52;1.70;;;;;;;;;;5105736;28;20076;-70
2021/07/06 11:37:10;;;;;;;11.30;2.10;;;;;;;;;;5109660;28;20043;-68
2021/07/06 11:39:36;;;;;;;7.60;1.63;;;;;;;;;;5110007;28;20487;-68
2021/07/06 11:42:03;;;;;;;8.90;1.70;;;;;;;;;;5108592;28;20038;-67
2021/07/06 11:44:30;;;;;;;11.95;2.13;;;;;;;;;;5105851;28;20034;-69
2021/07/06 11:47:12;;;;;;;8.73;2.55;;;;;;;;;;5109084;28;20018;-69
2021/07/06 11:49:38;;;;;;;7.78;1.73;;;;;;;;;;5107580;28;20410;-69
2021/07/06 11:52:04;;;;;;;11.57;2.30;;;;;;;;;;5095169;28;20122;-69
2021/07/06 11:54:31;;;;;;;14.75;2.25;;;;;;;;;;5105296;27;20026;-67
2021/07/06 11:57:07;;;;;;;10.90;2.00;;;;;;;;;;5095398;28;20035;-68
2021/07/06 11:59:33;;;;;;;8.75;2.42;;;;;;;;;;5105598;28;20035;-69
2021/07/06 12:02:06;;;;;;;13.27;2.90;;;;;;;;;;5108531;28;20118;-65
2021/07/06 12:04:33;;;;;;;8.23;2.03;;;;;;;;;;5106602;28;20034;-67
2021/07/06 12:07:09;;;;;;;11.90;3.22;;;;;;;;;;5108698;28;20479;-67
2021/07/06 12:09:36;;;;;;;13.40;3.13;;;;;;;;;;5101373;28;20391;-65
2021/07/06 12:12:08;;;;;;;15.80;3.22;;;;;;;;;;5102502;28;20036;-67
2021/07/06 12:14:35;;;;;;;13.13;2.10;;;;;;;;;;5101892;28;20039;-68
2021/07/06 12:17:03;;;;;;;5.85;1.30;;;;;;;;;;5100864;28;20031;-69
2021/07/06 12:19:29;;;;;;;7.47;1.98;;;;;;;;;;5093036;28;20065;-68
2021/07/06 12:21:55;;;;;;;5.40;1.42;;;;;;;;;;5091298;28;20068;-66
2021/07/06 12:24:28;;;;;;;7.38;1.67;;;;;;;;;;5103470;28;20030;-67
2021/07/06 12:26:55;;;;;;;11.70;1.70;;;;;;;;;;5106070;28;20098;-67
2021/07/06 12:29:34;;;;;;;5.55;1.83;;;;;;;;;;5106541;28;20023;-66
2021/07/06 12:32:01;;;;;;;7.72;1.60;;;;;;;;;;5105198;28;20024;-69
2021/07/06 12:34:37;;;;;;;10.35;1.83;;;;;;;;;;5104961;28;20059;-67
2021/07/06 12:37:04;;;;;;;6.80;1.50;;;;;;;;;;5101716;28;20027;-70
2021/07/06 12:39:34;;;;;;;8.15;1.88;;;;;;;;;;5104136;28;20032;-69
2021/07/06 12:42:02;;;;;;;8.63;1.77;;;;;;;;;;5103579;28;20106;-67
2021/07/06 12:44:34;;;;;;;10.50;2.35;;;;;;;;;;5106813;28;20028;-68
2021/07/06 12:47:13;;;;;;;9.43;1.63;;;;;;;;;;5105711;28;20602;-69
2021/07/06 12:49:40;;;;;;;15.35;2.58;;;;;;;;;;5092641;28;20164;-68
2021/07/06 12:52:07;;;;;;;8.48;1.48;;;;;;;;;;5110663;28;20036;-70
2021/07/06 12:54:34;;;;;;;6.53;1.60;;;;;;;;;;5108355;27;20096;-67
2021/07/06 12:57:00;;;;;;;11.68;2.35;;;;;;;;;;5105003;28;20173;-68
2021/07/06 12:59:29;;;;;;;12.32;1.95;;;;;;;;;;5093353;28;20039;-66
2021/07/06 13:01:56;;;;;;;8.38;2.05;;;;;;;;;;5107763;28;20024;-69
2021/07/06 13:04:23;;;;;;;13.48;2.22;;;;;;;;;;5097348;28;20024;-69
2021/07/06 13:06:52;;;;;;;11.25;2.38;;;;;;;;;;5096991;28;20023;-66
2021/07/06 13:09:25;;;;;;;11.57;2.60;;;;;;;;;;5104852;28;20031;-67
2021/07/06 13:11:51;;;;;;;12.25;2.05;;;;;;;;;;5094184;28;20441;-68
2021/07/06 13:14:18;;;;;;;9.57;2.10;;;;;;;;;;5100944;28;20027;-69
2021/07/06 13:16:45;;;;;;;9.40;1.98;;;;;;;;;;5109455;28;20016;-68
2021/07/06 13:19:18;;;;;;;10.88;2.17;;;;;;;;;;5108350;28;20487;-68
2021/07/06 13:21:44;;;;;;;7.78;2.10;;;;;;;;;;5091332;28;20039;-68
2021/07/06 13:24:10;;;;;;;9.88;2.80;;;;;;;;;;5104243;28;20418;-69
2021/07/06 13:26:36;;;;;;;9.75;2.28;;;;;;;;;;5106196;28;20399;-68
2021/07/06 13:29:02;;;;;;;9.60;2.38;;;;;;;;;;5109356;27;20624;-68
2021/07/06 13:31:29;;;;;;;7.30;1.83;;;;;;;;;;5107344;28;20023;-67
2021/07/06 13:33:55;;;;;;;5.72;1.33;;;;;;;;;;5103094;28;20035;-67
2021/07/06 13:36:22;;;;;;;11.82;2.35;;;;;;;;;;5109167;28;20212;-67
2021/07/06 13:38:48;;;;;;;13.80;2.30;;;;;;;;;;5089110;28;20106;-66
2021/07/06 13:41:14;;;;;;;12.32;2.38;;;;;;;;;;5104333;28;20031;-66
2021/07/06 13:43:40;;;;;;;10.27;2.17;;;;;;;;;;5101081;28;20077;-67
2021/07/06 13:46:06;;;;;;;16.70;2.50;;;;;;;;;;5111097;27;20030;-68
2021/07/06 13:48:32;;;;;;;15.30;2.55;;;;;;;;;;5109477;28;20426;-67
2021/07/06 13:50:59;;;;;;;19.15;2.72;;;;;;;;;;5108263;28;20032;-66
2021/07/06 13:53:25;;;;;;;15.07;2.75;;;;;;;;;;5107085;27;20219;-68
2021/07/06 13:55:52;;;;;;;6.72;1.95;;;;;;;;;;5110052;28;20063;-67
2021/07/06 13:58:21;;;;;;;13.68;1.80;;;;;;;;;;5110815;28;20066;-67
2021/07/06 14:00:47;;;;;;;17.45;3.13;;;;;;;;;;5102678;28;20486;-67
2021/07/06 14:03:13;;;;;;;13.52;2.40;;;;;;;;;;5111284;27;20143;-70
2021/07/06 14:05:46;;;;;;;14.02;1.95;;;;;;;;;;5110635;28;20042;-66
2021/07/06 14:08:15;;;;;;;13.32;2.55;;;;;;;;;;5095374;28;20030;-66
2021/07/06 14:10:42;;;;;;;10.25;2.70;;;;;;;;;;5111052;28;20032;-68
2021/07/06 14:13:08;;;;;;;17.10;2.00;;;;;;;;;;5105707;28;20103;-65
2021/07/06 14:15:35;;;;;;;9.70;1.83;;;;;;;;;;5108378;28;20080;-67
2021/07/06 14:18:01;;;;;;;10.52;1.60;;;;;;;;;;5100480;28;20035;-66
2021/07/06 14:20:27;;;;;;;17.52;2.95;;;;;;;;;;5104090;28;20114;-65
2021/07/06 14:22:53;;;;;;;13.52;2.17;;;;;;;;;;5109236;28;20020;-69
2021/07/06 14:25:19;;;;;;;12.85;2.15;;;;;;;;;;5098634;28;20023;-68
2021/07/06 14:27:46;;;;;;;12.82;2.15;;;;;;;;;;5100224;28;20092;-71
2021/07/06 14:30:12;;;;;;;13.80;3.28;;;;;;;;;;5110787;28;20197;-67
2021/07/06 14:32:38;;;;;;;16.73;2.50;;;;;;;;;;5108826;28;20031;-68
2021/07/06 14:35:08;;;;;;;12.25;2.08;;;;;;;;;;5108508;27;20157;-68
2021/07/06 14:37:34;;;;;;;9.05;1.88;;;;;;;;;;5114697;27;20034;-67
2021/07/06 14:40:00;;;;;;;12.60;1.90;;;;;;;;;;5114860;27;20031;-65